Santa Eularia des Riu, Spain
Current Conditions -  °F | °C
As of 2:00 AM on Saturday 25 Oct 2014 (Local Time) from LEIB Reporting Station
Few Clouds Few Clouds  
Wind Chill: 59°   Ceiling: Unl
Heat Index: 59°   Visibility: 6mi
Dew Point: 46°   Wind: 5mph
Humidity: 63%   Direction: 350°N
Pressure: 30.06"   Gusts: NA
Location:  38.98°N, 1.53°E
Report Text: LEIB 250000Z 35004KT 9999 FEW020 15/08 Q1018 NOSIG
Loading
Personal Weather Stations






























Interactive Weather Map
Tropical Storm Tracking
New forecast layout! Learn more

10-Day Weather Forecast

Advertisements
Track Severe Weather on mobile